sensor_id;sensor_type;location;lat;lon;timestamp;P1;durP1;ratioP1;P2;durP2;ratioP2
14619;SDS011;32125;48.518;9.050;2022-12-13T00:00:44;30.87;;;17.33;;
14619;SDS011;32125;48.518;9.050;2022-12-13T00:03:10;30.47;;;17.17;;
14619;SDS011;32125;48.518;9.050;2022-12-13T00:05:41;32.90;;;17.10;;
14619;SDS011;32125;48.518;9.050;2022-12-13T00:08:08;31.30;;;17.70;;
14619;SDS011;32125;48.518;9.050;2022-12-13T00:10:34;30.30;;;16.83;;
14619;SDS011;32125;48.518;9.050;2022-12-13T00:13:00;31.47;;;16.40;;
14619;SDS011;32125;48.518;9.050;2022-12-13T00:15:28;28.47;;;16.67;;
14619;SDS011;32125;48.518;9.050;2022-12-13T00:17:55;28.63;;;17.00;;
14619;SDS011;32125;48.518;9.050;2022-12-13T00:20:24;28.33;;;16.23;;
14619;SDS011;32125;48.518;9.050;2022-12-13T00:22:53;29.47;;;16.80;;
14619;SDS011;32125;48.518;9.050;2022-12-13T00:25:19;28.87;;;17.20;;
14619;SDS011;32125;48.518;9.050;2022-12-13T00:27:47;29.17;;;16.63;;
14619;SDS011;32125;48.518;9.050;2022-12-13T00:30:14;27.57;;;16.77;;
14619;SDS011;32125;48.518;9.050;2022-12-13T00:32:40;30.03;;;16.80;;
14619;SDS011;32125;48.518;9.050;2022-12-13T00:35:07;30.60;;;18.33;;
14619;SDS011;32125;48.518;9.050;2022-12-13T00:37:33;30.33;;;18.13;;
14619;SDS011;32125;48.518;9.050;2022-12-13T00:40:02;30.10;;;17.00;;
14619;SDS011;32125;48.518;9.050;2022-12-13T00:42:28;30.63;;;17.70;;
14619;SDS011;32125;48.518;9.050;2022-12-13T00:44:53;30.57;;;17.70;;
14619;SDS011;32125;48.518;9.050;2022-12-13T00:47:22;28.60;;;16.67;;
14619;SDS011;32125;48.518;9.050;2022-12-13T00:49:48;27.10;;;14.07;;
14619;SDS011;32125;48.518;9.050;2022-12-13T00:52:14;31.83;;;16.30;;
14619;SDS011;32125;48.518;9.050;2022-12-13T00:54:42;24.00;;;14.53;;
14619;SDS011;32125;48.518;9.050;2022-12-13T00:57:08;26.40;;;15.27;;
14619;SDS011;32125;48.518;9.050;2022-12-13T00:59:36;25.47;;;15.27;;
14619;SDS011;32125;48.518;9.050;2022-12-13T01:02:02;24.50;;;14.97;;
14619;SDS011;32125;48.518;9.050;2022-12-13T01:04:31;25.30;;;15.57;;
14619;SDS011;32125;48.518;9.050;2022-12-13T01:06:58;27.07;;;15.87;;
14619;SDS011;32125;48.518;9.050;2022-12-13T01:09:24;28.13;;;15.93;;
14619;SDS011;32125;48.518;9.050;2022-12-13T01:11:56;29.00;;;15.27;;
14619;SDS011;32125;48.518;9.050;2022-12-13T01:14:23;25.10;;;15.10;;
14619;SDS011;32125;48.518;9.050;2022-12-13T01:16:49;29.47;;;15.70;;
14619;SDS011;32125;48.518;9.050;2022-12-13T01:19:19;26.73;;;16.17;;
14619;SDS011;32125;48.518;9.050;2022-12-13T01:21:48;28.90;;;15.80;;
14619;SDS011;32125;48.518;9.050;2022-12-13T01:24:14;28.47;;;16.47;;
14619;SDS011;32125;48.518;9.050;2022-12-13T01:26:44;25.90;;;15.97;;
14619;SDS011;32125;48.518;9.050;2022-12-13T01:29:10;27.50;;;15.60;;
14619;SDS011;32125;48.518;9.050;2022-12-13T01:31:36;27.43;;;16.23;;
14619;SDS011;32125;48.518;9.050;2022-12-13T01:34:05;28.27;;;16.63;;
14619;SDS011;32125;48.518;9.050;2022-12-13T01:36:34;27.37;;;15.50;;
14619;SDS011;32125;48.518;9.050;2022-12-13T01:39:00;24.57;;;15.87;;
14619;SDS011;32125;48.518;9.050;2022-12-13T01:41:28;26.87;;;15.50;;
14619;SDS011;32125;48.518;9.050;2022-12-13T01:43:58;28.63;;;15.53;;
14619;SDS011;32125;48.518;9.050;2022-12-13T01:46:29;31.53;;;15.70;;
14619;SDS011;32125;48.518;9.050;2022-12-13T01:49:05;26.13;;;16.10;;
14619;SDS011;32125;48.518;9.050;2022-12-13T01:54:00;29.37;;;17.00;;
14619;SDS011;32125;48.518;9.050;2022-12-13T01:56:30;33.63;;;18.67;;
14619;SDS011;32125;48.518;9.050;2022-12-13T01:59:01;34.77;;;19.07;;
14619;SDS011;32125;48.518;9.050;2022-12-13T02:01:29;31.33;;;17.43;;
14619;SDS011;32125;48.518;9.050;2022-12-13T02:03:56;30.27;;;18.33;;
14619;SDS011;32125;48.518;9.050;2022-12-13T02:06:25;35.83;;;19.10;;
14619;SDS011;32125;48.518;9.050;2022-12-13T02:08:55;30.40;;;18.87;;
14619;SDS011;32125;48.518;9.050;2022-12-13T02:11:22;37.20;;;18.77;;
14619;SDS011;32125;48.518;9.050;2022-12-13T02:13:50;35.63;;;19.63;;
14619;SDS011;32125;48.518;9.050;2022-12-13T02:19:21;32.40;;;20.20;;
14619;SDS011;32125;48.518;9.050;2022-12-13T02:21:44;34.50;;;19.23;;
14619;SDS011;32125;48.518;9.050;2022-12-13T02:34:46;26.13;;;14.97;;
14619;SDS011;32125;48.518;9.050;2022-12-13T02:40:00;27.00;;;15.10;;
14619;SDS011;32125;48.518;9.050;2022-12-13T02:42:41;23.37;;;14.37;;
14619;SDS011;32125;48.518;9.050;2022-12-13T02:45:20;24.17;;;13.83;;
14619;SDS011;32125;48.518;9.050;2022-12-13T02:47:59;27.93;;;14.47;;
14619;SDS011;32125;48.518;9.050;2022-12-13T02:50:26;25.37;;;13.93;;
14619;SDS011;32125;48.518;9.050;2022-12-13T02:52:52;30.47;;;17.00;;
14619;SDS011;32125;48.518;9.050;2022-12-13T02:55:20;29.90;;;16.43;;
14619;SDS011;32125;48.518;9.050;2022-12-13T02:57:46;31.77;;;17.20;;
14619;SDS011;32125;48.518;9.050;2022-12-13T03:14:58;29.87;;;16.50;;
14619;SDS011;32125;48.518;9.050;2022-12-13T03:17:25;41.33;;;17.03;;
14619;SDS011;32125;48.518;9.050;2022-12-13T03:20:00;28.77;;;16.13;;
14619;SDS011;32125;48.518;9.050;2022-12-13T03:22:30;31.23;;;17.20;;
14619;SDS011;32125;48.518;9.050;2022-12-13T03:24:57;31.17;;;16.53;;
14619;SDS011;32125;48.518;9.050;2022-12-13T03:27:23;30.10;;;16.53;;
14619;SDS011;32125;48.518;9.050;2022-12-13T03:29:49;29.27;;;17.07;;
14619;SDS011;32125;48.518;9.050;2022-12-13T03:32:17;36.53;;;17.30;;
14619;SDS011;32125;48.518;9.050;2022-12-13T03:34:43;31.30;;;17.50;;
14619;SDS011;32125;48.518;9.050;2022-12-13T03:37:11;31.60;;;17.57;;
14619;SDS011;32125;48.518;9.050;2022-12-13T03:39:37;28.33;;;16.93;;
14619;SDS011;32125;48.518;9.050;2022-12-13T03:42:04;33.00;;;17.37;;
14619;SDS011;32125;48.518;9.050;2022-12-13T03:44:31;31.23;;;17.10;;
14619;SDS011;32125;48.518;9.050;2022-12-13T03:46:57;32.40;;;17.17;;
14619;SDS011;32125;48.518;9.050;2022-12-13T03:49:23;31.67;;;17.87;;
14619;SDS011;32125;48.518;9.050;2022-12-13T03:51:48;30.90;;;18.27;;
14619;SDS011;32125;48.518;9.050;2022-12-13T03:54:17;30.43;;;16.60;;
14619;SDS011;32125;48.518;9.050;2022-12-13T03:56:43;32.10;;;17.60;;
14619;SDS011;32125;48.518;9.050;2022-12-13T03:59:09;33.07;;;17.87;;
14619;SDS011;32125;48.518;9.050;2022-12-13T04:01:35;31.53;;;16.80;;
14619;SDS011;32125;48.518;9.050;2022-12-13T04:04:01;29.37;;;16.97;;
14619;SDS011;32125;48.518;9.050;2022-12-13T04:06:27;30.17;;;15.83;;
14619;SDS011;32125;48.518;9.050;2022-12-13T04:08:53;28.60;;;16.30;;
14619;SDS011;32125;48.518;9.050;2022-12-13T04:11:21;32.87;;;16.97;;
14619;SDS011;32125;48.518;9.050;2022-12-13T04:14:06;31.90;;;16.77;;
14619;SDS011;32125;48.518;9.050;2022-12-13T04:16:32;38.27;;;18.77;;
14619;SDS011;32125;48.518;9.050;2022-12-13T04:19:00;33.63;;;17.87;;
14619;SDS011;32125;48.518;9.050;2022-12-13T04:21:26;32.53;;;17.37;;
14619;SDS011;32125;48.518;9.050;2022-12-13T04:23:52;34.00;;;18.13;;
14619;SDS011;32125;48.518;9.050;2022-12-13T04:26:18;32.57;;;17.93;;
14619;SDS011;32125;48.518;9.050;2022-12-13T04:28:44;31.83;;;16.77;;
14619;SDS011;32125;48.518;9.050;2022-12-13T04:31:10;32.37;;;16.87;;
14619;SDS011;32125;48.518;9.050;2022-12-13T04:33:36;30.93;;;16.83;;
14619;SDS011;32125;48.518;9.050;2022-12-13T04:36:02;31.67;;;16.37;;
14619;SDS011;32125;48.518;9.050;2022-12-13T04:38:28;32.70;;;17.67;;
14619;SDS011;32125;48.518;9.050;2022-12-13T04:41:09;30.90;;;17.03;;
14619;SDS011;32125;48.518;9.050;2022-12-13T04:43:43;33.93;;;17.07;;
14619;SDS011;32125;48.518;9.050;2022-12-13T04:46:09;31.70;;;18.13;;
14619;SDS011;32125;48.518;9.050;2022-12-13T04:48:35;32.53;;;18.13;;
14619;SDS011;32125;48.518;9.050;2022-12-13T04:51:03;30.87;;;18.57;;
14619;SDS011;32125;48.518;9.050;2022-12-13T04:53:29;36.83;;;19.47;;
14619;SDS011;32125;48.518;9.050;2022-12-13T04:55:56;41.57;;;21.47;;
14619;SDS011;32125;48.518;9.050;2022-12-13T04:58:22;34.67;;;20.80;;
14619;SDS011;32125;48.518;9.050;2022-12-13T05:00:48;34.93;;;20.67;;
14619;SDS011;32125;48.518;9.050;2022-12-13T05:03:14;35.43;;;19.97;;
14619;SDS011;32125;48.518;9.050;2022-12-13T05:05:40;36.27;;;20.27;;
14619;SDS011;32125;48.518;9.050;2022-12-13T05:08:06;34.80;;;19.70;;
14619;SDS011;32125;48.518;9.050;2022-12-13T05:10:32;31.57;;;18.43;;
14619;SDS011;32125;48.518;9.050;2022-12-13T05:12:59;35.93;;;18.53;;
14619;SDS011;32125;48.518;9.050;2022-12-13T05:15:25;31.43;;;17.10;;
14619;SDS011;32125;48.518;9.050;2022-12-13T05:17:51;32.03;;;17.67;;
14619;SDS011;32125;48.518;9.050;2022-12-13T05:20:19;31.83;;;16.80;;
14619;SDS011;32125;48.518;9.050;2022-12-13T05:22:45;32.80;;;16.87;;
14619;SDS011;32125;48.518;9.050;2022-12-13T05:25:11;35.37;;;18.40;;
14619;SDS011;32125;48.518;9.050;2022-12-13T05:27:37;29.43;;;16.47;;
14619;SDS011;32125;48.518;9.050;2022-12-13T05:30:03;34.37;;;17.73;;
14619;SDS011;32125;48.518;9.050;2022-12-13T05:35:36;34.90;;;18.00;;
14619;SDS011;32125;48.518;9.050;2022-12-13T05:38:14;33.80;;;18.30;;
14619;SDS011;32125;48.518;9.050;2022-12-13T05:40:40;30.97;;;17.00;;
14619;SDS011;32125;48.518;9.050;2022-12-13T05:43:17;29.07;;;16.67;;
14619;SDS011;32125;48.518;9.050;2022-12-13T06:11:05;33.90;;;18.07;;
14619;SDS011;32125;48.518;9.050;2022-12-13T06:13:33;34.27;;;18.47;;
14619;SDS011;32125;48.518;9.050;2022-12-13T06:16:00;34.33;;;17.93;;
14619;SDS011;32125;48.518;9.050;2022-12-13T06:18:26;30.77;;;17.73;;
14619;SDS011;32125;48.518;9.050;2022-12-13T06:20:56;29.63;;;16.87;;
14619;SDS011;32125;48.518;9.050;2022-12-13T06:23:22;32.27;;;17.43;;
14619;SDS011;32125;48.518;9.050;2022-12-13T06:25:52;34.20;;;16.93;;
14619;SDS011;32125;48.518;9.050;2022-12-13T06:28:18;32.93;;;17.20;;
14619;SDS011;32125;48.518;9.050;2022-12-13T06:30:44;33.17;;;18.13;;
14619;SDS011;32125;48.518;9.050;2022-12-13T06:33:10;33.17;;;17.23;;
14619;SDS011;32125;48.518;9.050;2022-12-13T06:35:37;34.43;;;18.33;;
14619;SDS011;32125;48.518;9.050;2022-12-13T06:38:05;34.93;;;18.47;;
14619;SDS011;32125;48.518;9.050;2022-12-13T06:40:31;35.13;;;17.60;;
14619;SDS011;32125;48.518;9.050;2022-12-13T06:42:57;35.60;;;18.37;;
14619;SDS011;32125;48.518;9.050;2022-12-13T06:45:24;35.67;;;18.77;;
14619;SDS011;32125;48.518;9.050;2022-12-13T06:47:52;34.93;;;18.13;;
14619;SDS011;32125;48.518;9.050;2022-12-13T06:50:19;35.10;;;19.03;;
14619;SDS011;32125;48.518;9.050;2022-12-13T06:52:45;34.00;;;18.33;;
14619;SDS011;32125;48.518;9.050;2022-12-13T06:55:11;41.27;;;19.00;;
14619;SDS011;32125;48.518;9.050;2022-12-13T06:57:37;39.13;;;18.50;;
14619;SDS011;32125;48.518;9.050;2022-12-13T07:00:04;39.20;;;20.07;;
14619;SDS011;32125;48.518;9.050;2022-12-13T07:02:31;36.93;;;18.97;;
14619;SDS011;32125;48.518;9.050;2022-12-13T07:04:57;33.50;;;18.37;;
14619;SDS011;32125;48.518;9.050;2022-12-13T07:07:23;35.17;;;17.87;;
14619;SDS011;32125;48.518;9.050;2022-12-13T07:09:50;34.67;;;18.63;;
14619;SDS011;32125;48.518;9.050;2022-12-13T07:12:16;32.63;;;17.77;;
14619;SDS011;32125;48.518;9.050;2022-12-13T07:14:43;35.03;;;17.90;;
14619;SDS011;32125;48.518;9.050;2022-12-13T07:17:11;32.07;;;18.40;;
14619;SDS011;32125;48.518;9.050;2022-12-13T07:19:39;33.87;;;17.87;;
14619;SDS011;32125;48.518;9.050;2022-12-13T07:22:07;36.23;;;18.87;;
14619;SDS011;32125;48.518;9.050;2022-12-13T07:24:33;34.93;;;19.03;;
14619;SDS011;32125;48.518;9.050;2022-12-13T07:26:59;35.57;;;18.90;;
14619;SDS011;32125;48.518;9.050;2022-12-13T07:29:25;36.53;;;19.53;;
14619;SDS011;32125;48.518;9.050;2022-12-13T07:31:52;39.53;;;20.07;;
14619;SDS011;32125;48.518;9.050;2022-12-13T07:34:18;35.67;;;18.73;;
14619;SDS011;32125;48.518;9.050;2022-12-13T07:36:50;32.70;;;18.63;;
14619;SDS011;32125;48.518;9.050;2022-12-13T07:39:16;35.87;;;18.33;;
14619;SDS011;32125;48.518;9.050;2022-12-13T07:41:42;34.80;;;19.37;;
14619;SDS011;32125;48.518;9.050;2022-12-13T07:44:08;36.17;;;19.17;;
14619;SDS011;32125;48.518;9.050;2022-12-13T07:46:34;38.87;;;18.53;;
14619;SDS011;32125;48.518;9.050;2022-12-13T07:49:00;36.80;;;19.53;;
14619;SDS011;32125;48.518;9.050;2022-12-13T07:51:28;42.50;;;18.83;;
14619;SDS011;32125;48.518;9.050;2022-12-13T07:53:57;34.63;;;19.03;;
14619;SDS011;32125;48.518;9.050;2022-12-13T07:56:23;38.17;;;19.77;;
14619;SDS011;32125;48.518;9.050;2022-12-13T07:58:49;36.77;;;19.43;;
14619;SDS011;32125;48.518;9.050;2022-12-13T08:01:15;34.37;;;18.87;;
14619;SDS011;32125;48.518;9.050;2022-12-13T08:03:42;36.80;;;18.93;;
14619;SDS011;32125;48.518;9.050;2022-12-13T08:06:10;36.93;;;20.03;;
14619;SDS011;32125;48.518;9.050;2022-12-13T08:08:37;37.03;;;19.30;;
14619;SDS011;32125;48.518;9.050;2022-12-13T08:11:04;35.53;;;19.17;;
14619;SDS011;32125;48.518;9.050;2022-12-13T08:13:32;42.73;;;20.57;;
14619;SDS011;32125;48.518;9.050;2022-12-13T08:15:59;38.17;;;20.07;;
14619;SDS011;32125;48.518;9.050;2022-12-13T08:18:25;36.77;;;20.10;;
14619;SDS011;32125;48.518;9.050;2022-12-13T08:20:51;43.17;;;20.70;;
14619;SDS011;32125;48.518;9.050;2022-12-13T08:23:17;39.67;;;19.90;;
14619;SDS011;32125;48.518;9.050;2022-12-13T08:25:49;36.63;;;19.90;;
14619;SDS011;32125;48.518;9.050;2022-12-13T08:28:15;40.23;;;19.77;;
14619;SDS011;32125;48.518;9.050;2022-12-13T08:30:44;38.33;;;21.30;;
14619;SDS011;32125;48.518;9.050;2022-12-13T08:33:10;37.43;;;21.00;;
14619;SDS011;32125;48.518;9.050;2022-12-13T08:35:36;36.30;;;20.33;;
14619;SDS011;32125;48.518;9.050;2022-12-13T08:38:03;39.90;;;21.10;;
14619;SDS011;32125;48.518;9.050;2022-12-13T08:40:30;35.00;;;20.00;;
14619;SDS011;32125;48.518;9.050;2022-12-13T08:42:56;35.13;;;19.93;;
14619;SDS011;32125;48.518;9.050;2022-12-13T08:45:23;34.77;;;21.13;;
14619;SDS011;32125;48.518;9.050;2022-12-13T08:47:51;36.27;;;20.00;;
14619;SDS011;32125;48.518;9.050;2022-12-13T08:50:19;42.17;;;19.47;;
14619;SDS011;32125;48.518;9.050;2022-12-13T08:52:48;42.80;;;21.37;;
14619;SDS011;32125;48.518;9.050;2022-12-13T08:55:16;39.67;;;20.77;;
14619;SDS011;32125;48.518;9.050;2022-12-13T08:57:43;38.20;;;20.30;;
14619;SDS011;32125;48.518;9.050;2022-12-13T09:00:16;39.40;;;19.73;;
14619;SDS011;32125;48.518;9.050;2022-12-13T09:02:44;40.60;;;19.70;;
14619;SDS011;32125;48.518;9.050;2022-12-13T09:05:10;35.53;;;20.13;;
14619;SDS011;32125;48.518;9.050;2022-12-13T09:07:37;37.00;;;20.33;;
14619;SDS011;32125;48.518;9.050;2022-12-13T09:10:05;35.80;;;19.73;;
14619;SDS011;32125;48.518;9.050;2022-12-13T09:12:31;41.13;;;20.27;;
14619;SDS011;32125;48.518;9.050;2022-12-13T09:14:57;40.47;;;20.33;;
14619;SDS011;32125;48.518;9.050;2022-12-13T09:17:23;37.80;;;21.47;;
14619;SDS011;32125;48.518;9.050;2022-12-13T09:19:57;35.57;;;20.80;;
14619;SDS011;32125;48.518;9.050;2022-12-13T09:22:26;35.07;;;21.07;;
14619;SDS011;32125;48.518;9.050;2022-12-13T09:24:52;38.97;;;21.60;;
14619;SDS011;32125;48.518;9.050;2022-12-13T09:27:18;41.17;;;22.07;;
14619;SDS011;32125;48.518;9.050;2022-12-13T09:29:45;39.70;;;20.63;;
14619;SDS011;32125;48.518;9.050;2022-12-13T09:32:13;35.97;;;20.70;;
14619;SDS011;32125;48.518;9.050;2022-12-13T09:34:39;36.33;;;20.40;;
14619;SDS011;32125;48.518;9.050;2022-12-13T09:37:05;32.43;;;19.63;;
14619;SDS011;32125;48.518;9.050;2022-12-13T09:39:31;34.00;;;19.97;;
14619;SDS011;32125;48.518;9.050;2022-12-13T09:42:00;35.50;;;19.47;;
14619;SDS011;32125;48.518;9.050;2022-12-13T09:44:27;36.47;;;21.27;;
14619;SDS011;32125;48.518;9.050;2022-12-13T09:46:54;32.20;;;19.43;;
14619;SDS011;32125;48.518;9.050;2022-12-13T09:51:49;30.20;;;19.30;;
14619;SDS011;32125;48.518;9.050;2022-12-13T09:54:17;32.90;;;20.77;;
14619;SDS011;32125;48.518;9.050;2022-12-13T09:56:44;34.00;;;20.20;;
14619;SDS011;32125;48.518;9.050;2022-12-13T09:59:20;34.77;;;20.37;;
14619;SDS011;32125;48.518;9.050;2022-12-13T10:01:53;37.03;;;21.00;;
14619;SDS011;32125;48.518;9.050;2022-12-13T10:04:19;35.87;;;20.57;;
14619;SDS011;32125;48.518;9.050;2022-12-13T10:06:48;34.30;;;20.67;;
14619;SDS011;32125;48.518;9.050;2022-12-13T10:09:15;31.10;;;19.10;;
14619;SDS011;32125;48.518;9.050;2022-12-13T10:11:47;33.03;;;20.40;;
14619;SDS011;32125;48.518;9.050;2022-12-13T10:14:16;38.13;;;20.77;;
14619;SDS011;32125;48.518;9.050;2022-12-13T10:16:50;38.13;;;20.17;;
14619;SDS011;32125;48.518;9.050;2022-12-13T10:19:31;33.80;;;19.43;;
14619;SDS011;32125;48.518;9.050;2022-12-13T10:22:15;32.03;;;19.17;;
14619;SDS011;32125;48.518;9.050;2022-12-13T10:24:47;29.20;;;18.13;;
14619;SDS011;32125;48.518;9.050;2022-12-13T10:27:14;31.63;;;18.40;;
14619;SDS011;32125;48.518;9.050;2022-12-13T10:32:25;29.53;;;18.17;;
14619;SDS011;32125;48.518;9.050;2022-12-13T10:34:51;27.57;;;17.30;;
14619;SDS011;32125;48.518;9.050;2022-12-13T10:37:27;27.70;;;18.00;;
14619;SDS011;32125;48.518;9.050;2022-12-13T10:39:56;30.23;;;17.03;;
14619;SDS011;32125;48.518;9.050;2022-12-13T10:42:24;26.63;;;17.07;;
14619;SDS011;32125;48.518;9.050;2022-12-13T10:45:12;33.23;;;17.43;;
14619;SDS011;32125;48.518;9.050;2022-12-13T10:47:45;26.73;;;17.30;;
14619;SDS011;32125;48.518;9.050;2022-12-13T10:50:24;27.47;;;17.60;;
14619;SDS011;32125;48.518;9.050;2022-12-13T10:52:52;26.80;;;17.07;;
14619;SDS011;32125;48.518;9.050;2022-12-13T10:57:55;25.00;;;17.00;;
14619;SDS011;32125;48.518;9.050;2022-12-13T11:00:30;27.83;;;17.60;;
14619;SDS011;32125;48.518;9.050;2022-12-13T11:03:03;29.30;;;18.03;;
14619;SDS011;32125;48.518;9.050;2022-12-13T11:05:30;25.70;;;17.37;;
14619;SDS011;32125;48.518;9.050;2022-12-13T11:08:42;29.43;;;17.80;;
14619;SDS011;32125;48.518;9.050;2022-12-13T11:11:00;29.40;;;17.73;;
14619;SDS011;32125;48.518;9.050;2022-12-13T11:15:56;27.17;;;17.87;;
14619;SDS011;32125;48.518;9.050;2022-12-13T11:18:23;27.30;;;17.53;;
14619;SDS011;32125;48.518;9.050;2022-12-13T11:20:55;30.30;;;18.03;;
14619;SDS011;32125;48.518;9.050;2022-12-13T11:25:55;26.30;;;17.53;;
14619;SDS011;32125;48.518;9.050;2022-12-13T11:35:57;28.23;;;17.40;;
14619;SDS011;32125;48.518;9.050;2022-12-13T11:38:28;30.03;;;18.60;;
14619;SDS011;32125;48.518;9.050;2022-12-13T11:40:59;28.07;;;19.23;;
14619;SDS011;32125;48.518;9.050;2022-12-13T11:45:55;25.57;;;17.03;;
14619;SDS011;32125;48.518;9.050;2022-12-13T11:50:52;27.10;;;16.97;;
14619;SDS011;32125;48.518;9.050;2022-12-13T11:53:31;36.43;;;18.43;;
14619;SDS011;32125;48.518;9.050;2022-12-13T11:56:26;31.90;;;18.23;;
14619;SDS011;32125;48.518;9.050;2022-12-13T12:01:44;33.53;;;18.43;;
14619;SDS011;32125;48.518;9.050;2022-12-13T12:04:30;28.83;;;17.50;;
14619;SDS011;32125;48.518;9.050;2022-12-13T12:10:02;30.13;;;18.47;;
14619;SDS011;32125;48.518;9.050;2022-12-13T12:12:36;30.40;;;17.63;;
14619;SDS011;32125;48.518;9.050;2022-12-13T12:17:29;31.50;;;18.47;;
14619;SDS011;32125;48.518;9.050;2022-12-13T12:19:57;25.67;;;17.30;;
14619;SDS011;32125;48.518;9.050;2022-12-13T12:33:05;26.73;;;17.50;;
14619;SDS011;32125;48.518;9.050;2022-12-13T12:46:19;32.30;;;17.53;;
14619;SDS011;32125;48.518;9.050;2022-12-13T13:00:21;30.43;;;17.93;;
14619;SDS011;32125;48.518;9.050;2022-12-13T13:05:41;28.40;;;17.10;;
14619;SDS011;32125;48.518;9.050;2022-12-13T13:08:27;29.17;;;16.80;;
14619;SDS011;32125;48.518;9.050;2022-12-13T13:10:56;30.43;;;16.90;;
14619;SDS011;32125;48.518;9.050;2022-12-13T13:16:01;25.80;;;15.47;;
14619;SDS011;32125;48.518;9.050;2022-12-13T13:18:42;24.83;;;16.10;;
14619;SDS011;32125;48.518;9.050;2022-12-13T13:26:29;30.90;;;15.77;;
14619;SDS011;32125;48.518;9.050;2022-12-13T13:32:38;21.50;;;14.80;;
14619;SDS011;32125;48.518;9.050;2022-12-13T13:34:38;20.53;;;13.90;;
14619;SDS011;32125;48.518;9.050;2022-12-13T13:43:00;21.50;;;13.70;;
14619;SDS011;32125;48.518;9.050;2022-12-13T14:30:03;26.90;;;18.60;;
14619;SDS011;32125;48.518;9.050;2022-12-13T14:32:30;14.60;;;10.07;;
14619;SDS011;32125;48.518;9.050;2022-12-13T14:34:59;16.77;;;10.90;;
14619;SDS011;32125;48.518;9.050;2022-12-13T14:37:27;14.83;;;9.50;;
14619;SDS011;32125;48.518;9.050;2022-12-13T14:39:56;13.40;;;8.53;;
14619;SDS011;32125;48.518;9.050;2022-12-13T14:42:26;16.53;;;8.57;;
14619;SDS011;32125;48.518;9.050;2022-12-13T14:45:13;16.40;;;8.93;;
14619;SDS011;32125;48.518;9.050;2022-12-13T14:47:45;14.83;;;8.83;;
14619;SDS011;32125;48.518;9.050;2022-12-13T14:50:13;16.30;;;8.97;;
14619;SDS011;32125;48.518;9.050;2022-12-13T14:52:42;13.80;;;9.30;;
14619;SDS011;32125;48.518;9.050;2022-12-13T14:55:26;14.77;;;8.13;;
14619;SDS011;32125;48.518;9.050;2022-12-13T14:57:53;14.50;;;8.37;;
14619;SDS011;32125;48.518;9.050;2022-12-13T15:00:21;15.47;;;9.03;;
14619;SDS011;32125;48.518;9.050;2022-12-13T15:02:52;13.23;;;8.33;;
14619;SDS011;32125;48.518;9.050;2022-12-13T15:05:23;15.00;;;8.80;;
14619;SDS011;32125;48.518;9.050;2022-12-13T15:07:49;14.77;;;8.93;;
14619;SDS011;32125;48.518;9.050;2022-12-13T15:12:43;11.90;;;7.93;;
14619;SDS011;32125;48.518;9.050;2022-12-13T15:18:05;12.63;;;7.63;;
14619;SDS011;32125;48.518;9.050;2022-12-13T15:20:31;17.97;;;8.37;;
14619;SDS011;32125;48.518;9.050;2022-12-13T15:25:59;13.80;;;9.17;;
14619;SDS011;32125;48.518;9.050;2022-12-13T15:28:34;24.13;;;14.33;;
14619;SDS011;32125;48.518;9.050;2022-12-13T15:31:01;15.67;;;8.90;;
14619;SDS011;32125;48.518;9.050;2022-12-13T15:33:30;14.87;;;8.10;;
14619;SDS011;32125;48.518;9.050;2022-12-13T15:38:30;13.27;;;8.33;;
14619;SDS011;32125;48.518;9.050;2022-12-13T15:40:56;12.80;;;7.47;;
14619;SDS011;32125;48.518;9.050;2022-12-13T15:43:35;12.57;;;8.10;;
14619;SDS011;32125;48.518;9.050;2022-12-13T15:46:07;14.30;;;8.20;;
14619;SDS011;32125;48.518;9.050;2022-12-13T15:48:41;12.73;;;8.20;;
14619;SDS011;32125;48.518;9.050;2022-12-13T15:51:11;16.00;;;7.93;;
14619;SDS011;32125;48.518;9.050;2022-12-13T15:53:39;14.40;;;8.07;;
14619;SDS011;32125;48.518;9.050;2022-12-13T15:58:56;15.03;;;9.03;;
14619;SDS011;32125;48.518;9.050;2022-12-13T16:01:35;16.77;;;8.77;;
14619;SDS011;32125;48.518;9.050;2022-12-13T16:04:04;18.10;;;9.00;;
14619;SDS011;32125;48.518;9.050;2022-12-13T16:06:31;14.17;;;8.57;;
14619;SDS011;32125;48.518;9.050;2022-12-13T16:09:02;13.90;;;8.10;;
14619;SDS011;32125;48.518;9.050;2022-12-13T16:11:32;17.10;;;9.00;;
14619;SDS011;32125;48.518;9.050;2022-12-13T16:16:49;15.33;;;9.27;;
14619;SDS011;32125;48.518;9.050;2022-12-13T16:19:19;14.83;;;9.07;;
14619;SDS011;32125;48.518;9.050;2022-12-13T16:21:45;14.73;;;9.77;;
14619;SDS011;32125;48.518;9.050;2022-12-13T16:24:12;16.53;;;9.97;;
14619;SDS011;32125;48.518;9.050;2022-12-13T16:26:42;14.93;;;10.13;;
14619;SDS011;32125;48.518;9.050;2022-12-13T16:38:10;17.50;;;10.93;;
14619;SDS011;32125;48.518;9.050;2022-12-13T16:40:45;14.10;;;9.07;;
14619;SDS011;32125;48.518;9.050;2022-12-13T16:43:20;16.17;;;9.50;;
14619;SDS011;32125;48.518;9.050;2022-12-13T16:45:50;16.57;;;9.43;;
14619;SDS011;32125;48.518;9.050;2022-12-13T17:08:12;17.83;;;10.57;;
14619;SDS011;32125;48.518;9.050;2022-12-13T17:10:39;16.80;;;9.97;;
14619;SDS011;32125;48.518;9.050;2022-12-13T17:13:05;17.17;;;10.07;;
14619;SDS011;32125;48.518;9.050;2022-12-13T17:15:36;14.07;;;9.60;;
14619;SDS011;32125;48.518;9.050;2022-12-13T17:18:03;20.93;;;10.30;;
14619;SDS011;32125;48.518;9.050;2022-12-13T17:20:29;17.30;;;11.33;;
14619;SDS011;32125;48.518;9.050;2022-12-13T17:22:55;21.33;;;12.13;;
14619;SDS011;32125;48.518;9.050;2022-12-13T17:25:21;18.33;;;11.03;;
14619;SDS011;32125;48.518;9.050;2022-12-13T17:27:48;18.13;;;11.33;;
14619;SDS011;32125;48.518;9.050;2022-12-13T17:30:15;23.30;;;12.10;;
14619;SDS011;32125;48.518;9.050;2022-12-13T17:32:43;18.13;;;11.53;;
14619;SDS011;32125;48.518;9.050;2022-12-13T17:35:10;20.47;;;11.80;;
14619;SDS011;32125;48.518;9.050;2022-12-13T17:37:36;19.07;;;11.90;;
14619;SDS011;32125;48.518;9.050;2022-12-13T17:40:03;20.47;;;12.53;;
14619;SDS011;32125;48.518;9.050;2022-12-13T17:42:31;21.90;;;13.67;;
14619;SDS011;32125;48.518;9.050;2022-12-13T17:44:57;21.07;;;13.30;;
14619;SDS011;32125;48.518;9.050;2022-12-13T17:47:25;23.37;;;12.50;;
14619;SDS011;32125;48.518;9.050;2022-12-13T17:49:52;19.20;;;11.43;;
14619;SDS011;32125;48.518;9.050;2022-12-13T17:52:20;19.33;;;11.00;;
14619;SDS011;32125;48.518;9.050;2022-12-13T17:54:47;19.87;;;11.73;;
14619;SDS011;32125;48.518;9.050;2022-12-13T17:57:13;20.70;;;12.33;;
14619;SDS011;32125;48.518;9.050;2022-12-13T17:59:39;18.23;;;11.10;;
14619;SDS011;32125;48.518;9.050;2022-12-13T18:02:06;17.03;;;10.70;;
14619;SDS011;32125;48.518;9.050;2022-12-13T18:04:32;14.50;;;9.77;;
14619;SDS011;32125;48.518;9.050;2022-12-13T18:06:58;20.33;;;10.33;;
14619;SDS011;32125;48.518;9.050;2022-12-13T18:09:24;17.63;;;9.70;;
14619;SDS011;32125;48.518;9.050;2022-12-13T18:11:50;18.37;;;10.83;;
14619;SDS011;32125;48.518;9.050;2022-12-13T18:14:20;16.13;;;10.33;;
14619;SDS011;32125;48.518;9.050;2022-12-13T18:16:48;18.27;;;10.30;;
14619;SDS011;32125;48.518;9.050;2022-12-13T18:19:14;19.10;;;10.83;;
14619;SDS011;32125;48.518;9.050;2022-12-13T18:21:41;20.43;;;11.00;;
14619;SDS011;32125;48.518;9.050;2022-12-13T18:24:12;18.33;;;10.30;;
14619;SDS011;32125;48.518;9.050;2022-12-13T18:26:38;20.70;;;11.03;;
14619;SDS011;32125;48.518;9.050;2022-12-13T18:29:06;20.47;;;10.50;;